Terminal Aerodrome Forecast
Issued by NWS Chicago, IL

Home | Current Version | Previous Version | Graphics & Text | Print | Product List | Glossary On
Versions: 1 2 3 4 5 6 7 8 9 10 11 12 13 14 15 16 17 18 19 20 21 22 23 24 25 26 27 28 29 30 31 32
000
FTUS43 KLOT 171720
TAFRFD
TAF
KRFD 171720Z 1718/1818 25006KT P6SM SCT250
     FM180200 24003KT P6SM SCT060
     FM181000 03004KT P6SM BKN060
     FM181400 06012G17KT P6SM BKN060=

USA.gov is the U.S. government's official web portal to all federal, state and local government web resources and services.